BAW534 EGLL-LPPD
Flight info
| Callsign | BAW534 |
|---|---|
| Flight time | N/A |
| Altitude | 33000 |
| Route | GASGU N866 SAM M195 LORKU DCT EBOMO DCT KORUL DCT PETEK/N0450F370 DCT ERPES/M078F360 DCT LENSI DCT BEKUN DCT |
| Aircraft | A320/M-SDE3FGIKRWXY/S |
Departure
| Time | N/A |
|---|---|
| Airport | London Heathrow Airport (EGLL) |
Arrival
| Time | 2026-04-27 17:19 |
|---|---|
| Airport | João Paulo II Airport (LPPD) |
| Time | Latitude | Longitude | Altitude | Speed | Heading |
|---|---|---|---|---|---|
| 2026-04-27 15:37 | 41.92130 | -12.88268 | 35152 ft | 436 kts | 222° |
| 2026-04-27 15:38 | 41.87518 | -12.93559 | 35158 ft | 437 kts | 222° |
| 2026-04-27 15:38 | 41.83000 | -12.98730 | 35158 ft | 437 kts | 222° |
| 2026-04-27 15:39 | 41.78375 | -13.04005 | 35159 ft | 437 kts | 222° |
| 2026-04-27 15:39 | 41.73746 | -13.09278 | 35159 ft | 437 kts | 222° |
| 2026-04-27 15:40 | 41.69103 | -13.14542 | 35160 ft | 437 kts | 221° |
| 2026-04-27 15:40 | 41.64495 | -13.19764 | 35162 ft | 437 kts | 222° |
| 2026-04-27 15:41 | 41.59856 | -13.25029 | 35162 ft | 437 kts | 221° |
| 2026-04-27 15:41 | 41.55207 | -13.30272 | 35160 ft | 438 kts | 221° |
| 2026-04-27 15:42 | 41.50555 | -13.35518 | 35159 ft | 438 kts | 221° |
| 2026-04-27 15:42 | 41.45935 | -13.40729 | 35160 ft | 438 kts | 221° |
| 2026-04-27 15:43 | 41.41281 | -13.45961 | 35163 ft | 438 kts | 221° |
| 2026-04-27 15:43 | 41.36612 | -13.51173 | 35163 ft | 438 kts | 221° |
| 2026-04-27 15:44 | 41.31948 | -13.56383 | 35160 ft | 438 kts | 221° |
| 2026-04-27 15:44 | 41.27311 | -13.61568 | 35159 ft | 438 kts | 221° |
| 2026-04-27 15:45 | 41.22644 | -13.66780 | 35158 ft | 438 kts | 221° |
| 2026-04-27 15:45 | 41.17968 | -13.71983 | 35159 ft | 439 kts | 221° |
| 2026-04-27 15:46 | 41.13291 | -13.77175 | 35158 ft | 439 kts | 221° |
| 2026-04-27 15:46 | 41.08639 | -13.82332 | 35159 ft | 439 kts | 221° |
| 2026-04-27 15:47 | 41.03952 | -13.87512 | 35153 ft | 439 kts | 221° |
| 2026-04-27 15:47 | 40.99262 | -13.92673 | 35154 ft | 439 kts | 221° |
| 2026-04-27 15:48 | 40.94575 | -13.97847 | 35155 ft | 439 kts | 221° |
| 2026-04-27 15:49 | 40.87568 | -14.05548 | 35157 ft | 439 kts | 221° |
| 2026-04-27 15:49 | 40.82873 | -14.10704 | 35157 ft | 439 kts | 221° |
| 2026-04-27 15:50 | 40.78179 | -14.15845 | 35161 ft | 439 kts | 221° |
| 2026-04-27 15:50 | 40.73479 | -14.20972 | 35162 ft | 439 kts | 221° |
| 2026-04-27 15:51 | 40.68773 | -14.26101 | 35160 ft | 439 kts | 220° |
| 2026-04-27 15:51 | 40.64099 | -14.31188 | 35157 ft | 439 kts | 221° |
| 2026-04-27 15:52 | 40.59394 | -14.36302 | 35158 ft | 439 kts | 221° |
| 2026-04-27 15:52 | 40.54685 | -14.41412 | 35158 ft | 439 kts | 221° |
| 2026-04-27 15:53 | 40.49970 | -14.46513 | 35154 ft | 439 kts | 221° |
| 2026-04-27 15:53 | 40.45277 | -14.51570 | 35158 ft | 439 kts | 221° |
| 2026-04-27 15:54 | 40.40552 | -14.56658 | 35150 ft | 439 kts | 221° |
| 2026-04-27 15:54 | 40.35824 | -14.61752 | 35152 ft | 440 kts | 220° |
| 2026-04-27 15:55 | 40.31093 | -14.66830 | 35155 ft | 440 kts | 221° |
| 2026-04-27 15:55 | 40.26385 | -14.71872 | 35156 ft | 440 kts | 220° |
| 2026-04-27 15:56 | 40.21646 | -14.76946 | 35156 ft | 440 kts | 221° |
| 2026-04-27 15:56 | 40.16903 | -14.82024 | 35154 ft | 440 kts | 221° |
| 2026-04-27 15:57 | 40.12154 | -14.87084 | 35152 ft | 441 kts | 220° |
| 2026-04-27 15:57 | 40.07431 | -14.92116 | 35152 ft | 441 kts | 221° |
| 2026-04-27 15:58 | 40.02812 | -14.97368 | 35155 ft | 439 kts | 230° |
| 2026-04-27 15:58 | 39.99565 | -15.04027 | 35150 ft | 435 kts | 249° |
| 2026-04-27 15:59 | 39.97962 | -15.11601 | 35146 ft | 434 kts | 258° |
| 2026-04-27 15:59 | 39.96616 | -15.19223 | 35146 ft | 435 kts | 258° |
| 2026-04-27 16:00 | 39.95231 | -15.26899 | 35149 ft | 435 kts | 258° |
| 2026-04-27 16:00 | 39.93847 | -15.34583 | 35156 ft | 436 kts | 258° |
| 2026-04-27 16:01 | 39.92467 | -15.42276 | 35159 ft | 436 kts | 258° |
| 2026-04-27 16:01 | 39.91086 | -15.49976 | 35159 ft | 437 kts | 258° |
| 2026-04-27 16:02 | 39.89703 | -15.57628 | 35162 ft | 437 kts | 258° |
| 2026-04-27 16:02 | 39.88298 | -15.65339 | 35162 ft | 438 kts | 258° |
| 2026-04-27 16:03 | 39.86891 | -15.73056 | 35162 ft | 438 kts | 258° |
| 2026-04-27 16:03 | 39.85483 | -15.80778 | 35164 ft | 439 kts | 258° |
| 2026-04-27 16:04 | 39.84070 | -15.88454 | 35163 ft | 440 kts | 258° |
| 2026-04-27 16:04 | 39.82629 | -15.96195 | 35166 ft | 440 kts | 258° |
| 2026-04-27 16:05 | 39.81194 | -16.03936 | 35163 ft | 441 kts | 258° |
| 2026-04-27 16:05 | 39.79763 | -16.11703 | 35168 ft | 442 kts | 258° |
| 2026-04-27 16:06 | 39.78312 | -16.19415 | 35168 ft | 442 kts | 258° |
| 2026-04-27 16:06 | 39.76845 | -16.27185 | 35173 ft | 443 kts | 258° |
| 2026-04-27 16:07 | 39.75383 | -16.34959 | 35171 ft | 443 kts | 258° |
| 2026-04-27 16:07 | 39.73915 | -16.42739 | 35176 ft | 444 kts | 258° |
| 2026-04-27 16:08 | 39.72448 | -16.50472 | 35178 ft | 444 kts | 258° |
| 2026-04-27 16:08 | 39.70967 | -16.58251 | 35181 ft | 444 kts | 258° |
| 2026-04-27 16:09 | 39.69472 | -16.66036 | 35181 ft | 444 kts | 258° |
| 2026-04-27 16:09 | 39.67238 | -16.77654 | 35182 ft | 444 kts | 258° |
| 2026-04-27 16:10 | 39.64226 | -16.93221 | 35186 ft | 445 kts | 258° |
| 2026-04-27 16:11 | 39.61953 | -17.04887 | 35192 ft | 445 kts | 258° |
| 2026-04-27 16:12 | 39.59667 | -17.16506 | 35193 ft | 445 kts | 258° |
| 2026-04-27 16:13 | 39.57365 | -17.28182 | 35193 ft | 446 kts | 258° |
| 2026-04-27 16:13 | 39.55065 | -17.39796 | 35196 ft | 446 kts | 258° |
| 2026-04-27 16:14 | 39.51955 | -17.55356 | 35199 ft | 446 kts | 258° |
| 2026-04-27 16:15 | 39.48821 | -17.70901 | 35210 ft | 446 kts | 258° |
| 2026-04-27 16:16 | 39.45692 | -17.86380 | 35208 ft | 446 kts | 258° |
| 2026-04-27 16:17 | 39.42516 | -18.01902 | 35211 ft | 446 kts | 258° |
| 2026-04-27 16:18 | 39.39340 | -18.17360 | 35216 ft | 446 kts | 257° |
| 2026-04-27 16:19 | 39.37735 | -18.25116 | 35214 ft | 446 kts | 257° |
| 2026-04-27 16:20 | 39.34527 | -18.40552 | 35213 ft | 446 kts | 257° |
| 2026-04-27 16:21 | 39.32088 | -18.52160 | 35218 ft | 446 kts | 257° |
| 2026-04-27 16:22 | 39.28850 | -18.67577 | 35214 ft | 446 kts | 257° |
| 2026-04-27 16:22 | 39.26394 | -18.79171 | 35217 ft | 446 kts | 257° |
| 2026-04-27 16:23 | 39.23930 | -18.90746 | 35223 ft | 446 kts | 257° |
| 2026-04-27 16:24 | 39.22278 | -18.98462 | 35225 ft | 446 kts | 257° |
| 2026-04-27 16:25 | 39.18972 | -19.13818 | 35228 ft | 446 kts | 257° |
| 2026-04-27 16:26 | 39.15637 | -19.29203 | 35229 ft | 445 kts | 256° |
| 2026-04-27 16:27 | 39.12294 | -19.44504 | 35231 ft | 445 kts | 256° |
| 2026-04-27 16:28 | 39.08085 | -19.63598 | 35230 ft | 444 kts | 256° |
| 2026-04-27 16:29 | 39.03864 | -19.82695 | 35233 ft | 443 kts | 256° |
| 2026-04-27 16:30 | 39.00461 | -19.97865 | 35238 ft | 442 kts | 256° |
| 2026-04-27 16:31 | 38.94963 | -20.16367 | 35236 ft | 443 kts | 250° |
| 2026-04-27 16:32 | 38.91560 | -20.27348 | 35233 ft | 443 kts | 250° |
| 2026-04-27 16:33 | 38.88132 | -20.38364 | 35230 ft | 443 kts | 250° |
| 2026-04-27 16:33 | 38.85853 | -20.45708 | 35228 ft | 443 kts | 250° |
| 2026-04-27 16:34 | 38.83569 | -20.53042 | 35236 ft | 443 kts | 250° |
| 2026-04-27 16:34 | 38.81290 | -20.60322 | 35231 ft | 443 kts | 250° |
| 2026-04-27 16:35 | 38.78987 | -20.67638 | 35230 ft | 443 kts | 250° |
| 2026-04-27 16:36 | 38.75523 | -20.78603 | 35236 ft | 442 kts | 249° |
| 2026-04-27 16:36 | 38.73218 | -20.85913 | 35234 ft | 442 kts | 249° |
| 2026-04-27 16:37 | 38.70921 | -20.93166 | 35233 ft | 443 kts | 249° |
| 2026-04-27 16:37 | 38.68602 | -21.00455 | 35228 ft | 443 kts | 249° |
| 2026-04-27 16:38 | 38.66281 | -21.07757 | 35235 ft | 443 kts | 249° |
| 2026-04-27 16:38 | 38.63959 | -21.15043 | 35228 ft | 443 kts | 249° |
| 2026-04-27 16:39 | 38.61625 | -21.22330 | 35232 ft | 443 kts | 249° |
| 2026-04-27 16:39 | 38.59300 | -21.29560 | 35235 ft | 443 kts | 249° |
| 2026-04-27 16:40 | 38.56957 | -21.36840 | 35226 ft | 443 kts | 249° |
| 2026-04-27 16:40 | 38.54616 | -21.44111 | 35223 ft | 443 kts | 249° |
| 2026-04-27 16:41 | 38.52265 | -21.51379 | 35229 ft | 443 kts | 249° |
| 2026-04-27 16:41 | 38.49923 | -21.58596 | 35227 ft | 443 kts | 249° |
| 2026-04-27 16:42 | 38.47567 | -21.65852 | 35229 ft | 443 kts | 249° |
| 2026-04-27 16:42 | 38.45200 | -21.73110 | 35232 ft | 443 kts | 249° |
| 2026-04-27 16:43 | 38.42825 | -21.80359 | 35177 ft | 443 kts | 251° |
| 2026-04-27 16:43 | 38.40480 | -21.87534 | 35225 ft | 440 kts | 251° |
| 2026-04-27 16:44 | 38.38120 | -21.94721 | 35239 ft | 439 kts | 251° |
| 2026-04-27 16:44 | 38.35760 | -22.01882 | 35240 ft | 438 kts | 251° |
| 2026-04-27 16:45 | 38.33403 | -22.09012 | 35236 ft | 437 kts | 251° |
| 2026-04-27 16:45 | 38.31059 | -22.16086 | 35234 ft | 436 kts | 251° |
| 2026-04-27 16:46 | 38.28715 | -22.23196 | 35234 ft | 435 kts | 251° |
| 2026-04-27 16:46 | 38.26355 | -22.30286 | 35231 ft | 435 kts | 250° |
| 2026-04-27 16:47 | 38.23996 | -22.37366 | 35228 ft | 435 kts | 251° |
| 2026-04-27 16:47 | 38.21650 | -22.44392 | 35226 ft | 434 kts | 251° |
| 2026-04-27 16:48 | 38.19278 | -22.51456 | 35225 ft | 434 kts | 251° |
| 2026-04-27 16:48 | 38.16905 | -22.58514 | 35225 ft | 434 kts | 250° |
| 2026-04-27 16:49 | 38.13352 | -22.69086 | 35223 ft | 434 kts | 251° |
| 2026-04-27 16:49 | 38.10993 | -22.76071 | 35224 ft | 433 kts | 250° |
| 2026-04-27 16:50 | 38.08608 | -22.83099 | 35223 ft | 433 kts | 250° |
| 2026-04-27 16:50 | 38.06225 | -22.90118 | 35226 ft | 433 kts | 250° |
| 2026-04-27 16:51 | 38.03845 | -22.97130 | 35223 ft | 433 kts | 250° |
| 2026-04-27 16:51 | 38.01472 | -23.04083 | 35222 ft | 432 kts | 250° |
| 2026-04-27 16:52 | 37.99083 | -23.11072 | 35224 ft | 432 kts | 250° |
| 2026-04-27 16:52 | 37.96689 | -23.18044 | 35227 ft | 431 kts | 250° |
| 2026-04-27 16:53 | 37.94881 | -23.25204 | 35222 ft | 423 kts | 265° |
| 2026-04-27 16:53 | 37.94551 | -23.32555 | 35221 ft | 420 kts | 271° |
| 2026-04-27 16:54 | 37.94336 | -23.39949 | 35220 ft | 420 kts | 270° |
| 2026-04-27 16:54 | 37.94095 | -23.47337 | 35221 ft | 420 kts | 270° |
| 2026-04-27 16:55 | 37.93847 | -23.54724 | 35223 ft | 419 kts | 270° |
| 2026-04-27 16:55 | 37.93603 | -23.62103 | 35221 ft | 419 kts | 270° |
| 2026-04-27 16:56 | 37.93358 | -23.69425 | 35091 ft | 419 kts | 270° |
| 2026-04-27 16:56 | 37.93236 | -23.73111 | 34845 ft | 419 kts | 270° |
| 2026-04-27 16:56 | 37.93113 | -23.76798 | 34602 ft | 420 kts | 270° |
| 2026-04-27 16:57 | 37.92986 | -23.80498 | 34363 ft | 421 kts | 270° |
| 2026-04-27 16:57 | 37.92857 | -23.84207 | 34112 ft | 422 kts | 270° |
| 2026-04-27 16:57 | 37.92725 | -23.87929 | 33839 ft | 424 kts | 270° |
| 2026-04-27 16:57 | 37.92591 | -23.91658 | 33570 ft | 425 kts | 270° |
| 2026-04-27 16:58 | 37.92456 | -23.95349 | 33303 ft | 426 kts | 270° |
| 2026-04-27 16:58 | 37.92319 | -23.99100 | 33040 ft | 427 kts | 270° |
| 2026-04-27 16:58 | 37.92182 | -24.02863 | 32249 ft | 429 kts | 269° |
| 2026-04-27 16:58 | 37.92050 | -24.06619 | 31775 ft | 424 kts | 269° |
| 2026-04-27 16:59 | 37.91918 | -24.10331 | 31236 ft | 420 kts | 269° |
| 2026-04-27 16:59 | 37.91783 | -24.14009 | 30708 ft | 417 kts | 269° |
| 2026-04-27 16:59 | 37.91647 | -24.17636 | 30161 ft | 414 kts | 269° |
| 2026-04-27 16:59 | 37.91506 | -24.21257 | 29594 ft | 410 kts | 269° |
| 2026-04-27 17:00 | 37.91322 | -24.25992 | 28899 ft | 404 kts | 269° |
| 2026-04-27 17:00 | 37.91095 | -24.31847 | 28047 ft | 397 kts | 269° |
| 2026-04-27 17:00 | 37.90958 | -24.35330 | 27538 ft | 394 kts | 269° |
| 2026-04-27 17:01 | 37.90821 | -24.38780 | 27032 ft | 391 kts | 269° |
| 2026-04-27 17:01 | 37.90682 | -24.42216 | 26527 ft | 389 kts | 269° |
| 2026-04-27 17:01 | 37.90547 | -24.45630 | 26041 ft | 387 kts | 269° |
| 2026-04-27 17:01 | 37.90411 | -24.49027 | 25555 ft | 386 kts | 268° |
| 2026-04-27 17:02 | 37.90320 | -24.51268 | 25244 ft | 385 kts | 268° |
| 2026-04-27 17:02 | 37.90183 | -24.54650 | 24773 ft | 384 kts | 268° |
| 2026-04-27 17:02 | 37.90000 | -24.59123 | 24174 ft | 383 kts | 268° |
| 2026-04-27 17:02 | 37.89860 | -24.62484 | 23710 ft | 382 kts | 268° |
| 2026-04-27 17:03 | 37.89719 | -24.65841 | 23227 ft | 380 kts | 268° |
| 2026-04-27 17:03 | 37.89624 | -24.68048 | 22941 ft | 378 kts | 268° |
| 2026-04-27 17:03 | 37.89483 | -24.71357 | 22504 ft | 375 kts | 268° |
| 2026-04-27 17:03 | 37.89294 | -24.75747 | 21914 ft | 371 kts | 267° |
| 2026-04-27 17:04 | 37.89201 | -24.77903 | 21618 ft | 369 kts | 267° |
| 2026-04-27 17:04 | 37.89083 | -24.81144 | 21129 ft | 368 kts | 270° |
| 2026-04-27 17:04 | 37.89284 | -24.85402 | 20485 ft | 365 kts | 274° |
| 2026-04-27 17:04 | 37.89457 | -24.88596 | 19993 ft | 363 kts | 274° |
| 2026-04-27 17:05 | 37.89572 | -24.90745 | 19661 ft | 362 kts | 273° |
| 2026-04-27 17:05 | 37.89741 | -24.93928 | 19159 ft | 361 kts | 273° |
| 2026-04-27 17:05 | 37.89904 | -24.97049 | 18655 ft | 360 kts | 273° |
| 2026-04-27 17:05 | 37.90067 | -25.00208 | 18105 ft | 359 kts | 272° |
| 2026-04-27 17:06 | 37.90227 | -25.03350 | 17586 ft | 356 kts | 272° |
| 2026-04-27 17:06 | 37.90389 | -25.06471 | 17082 ft | 354 kts | 272° |
| 2026-04-27 17:06 | 37.90549 | -25.09569 | 16580 ft | 352 kts | 272° |
| 2026-04-27 17:06 | 37.90706 | -25.12648 | 16071 ft | 350 kts | 271° |
| 2026-04-27 17:07 | 37.90862 | -25.15712 | 15577 ft | 348 kts | 272° |
| 2026-04-27 17:07 | 37.91017 | -25.18763 | 15080 ft | 347 kts | 272° |
| 2026-04-27 17:07 | 37.91170 | -25.21764 | 14597 ft | 346 kts | 272° |
| 2026-04-27 17:07 | 37.91324 | -25.24798 | 14097 ft | 345 kts | 271° |
| 2026-04-27 17:08 | 37.91475 | -25.27755 | 13574 ft | 344 kts | 271° |
| 2026-04-27 17:08 | 37.91625 | -25.30768 | 13077 ft | 342 kts | 271° |
| 2026-04-27 17:08 | 37.91771 | -25.33759 | 12592 ft | 339 kts | 271° |
| 2026-04-27 17:08 | 37.91918 | -25.36729 | 12109 ft | 337 kts | 271° |
| 2026-04-27 17:09 | 37.92064 | -25.39680 | 11629 ft | 335 kts | 271° |
| 2026-04-27 17:09 | 37.92209 | -25.42612 | 11159 ft | 333 kts | 271° |
| 2026-04-27 17:09 | 37.92352 | -25.45529 | 10691 ft | 331 kts | 271° |
| 2026-04-27 17:09 | 37.92487 | -25.48362 | 10491 ft | 321 kts | 271° |
| 2026-04-27 17:10 | 37.92620 | -25.51127 | 10370 ft | 309 kts | 271° |
| 2026-04-27 17:10 | 37.92748 | -25.53792 | 10252 ft | 298 kts | 271° |
| 2026-04-27 17:10 | 37.92871 | -25.56379 | 10089 ft | 290 kts | 271° |
| 2026-04-27 17:10 | 37.92992 | -25.58943 | 9626 ft | 293 kts | 270° |
| 2026-04-27 17:11 | 37.93101 | -25.61495 | 9347 ft | 288 kts | 269° |
| 2026-04-27 17:11 | 37.93074 | -25.66536 | 8639 ft | 285 kts | 265° |
| 2026-04-27 17:11 | 37.93008 | -25.69011 | 8303 ft | 283 kts | 265° |
| 2026-04-27 17:12 | 37.92871 | -25.73950 | 7722 ft | 277 kts | 265° |
| 2026-04-27 17:12 | 37.92815 | -25.76334 | 7567 ft | 263 kts | 265° |
| 2026-04-27 17:12 | 37.92768 | -25.78608 | 7188 ft | 255 kts | 265° |
| 2026-04-27 17:13 | 37.92648 | -25.80770 | 6999 ft | 237 kts | 256° |
| 2026-04-27 17:13 | 37.92209 | -25.82683 | 6882 ft | 216 kts | 244° |
| 2026-04-27 17:13 | 37.91555 | -25.84279 | 6761 ft | 195 kts | 234° |
| 2026-04-27 17:13 | 37.90745 | -25.85607 | 6394 ft | 188 kts | 225° |
| 2026-04-27 17:14 | 37.89799 | -25.86702 | 5947 ft | 189 kts | 216° |
| 2026-04-27 17:14 | 37.88678 | -25.87603 | 5400 ft | 191 kts | 206° |
| 2026-04-27 17:14 | 37.87450 | -25.88235 | 4910 ft | 191 kts | 197° |
| 2026-04-27 17:14 | 37.86156 | -25.88582 | 4392 ft | 190 kts | 187° |
| 2026-04-27 17:15 | 37.84838 | -25.88636 | 3887 ft | 190 kts | 178° |
| 2026-04-27 17:15 | 37.83535 | -25.88403 | 3393 ft | 189 kts | 168° |
| 2026-04-27 17:15 | 37.82283 | -25.87887 | 2885 ft | 189 kts | 159° |
| 2026-04-27 17:15 | 37.81129 | -25.87106 | 2446 ft | 187 kts | 149° |
| 2026-04-27 17:16 | 37.80140 | -25.86127 | 2375 ft | 179 kts | 141° |
| 2026-04-27 17:16 | 37.79297 | -25.84975 | 2293 ft | 179 kts | 132° |
| 2026-04-27 17:16 | 37.78625 | -25.83672 | 2239 ft | 181 kts | 123° |
| 2026-04-27 17:16 | 37.78116 | -25.82217 | 2193 ft | 177 kts | 117° |
| 2026-04-27 17:17 | 37.77679 | -25.80811 | 1919 ft | 167 kts | 117° |
| 2026-04-27 17:17 | 37.77266 | -25.79487 | 1682 ft | 155 kts | 118° |
| 2026-04-27 17:17 | 37.76895 | -25.78296 | 1498 ft | 138 kts | 118° |
| 2026-04-27 17:18 | 37.76204 | -25.76110 | 1132 ft | 133 kts | 117° |
| 2026-04-27 17:18 | 37.75863 | -25.75040 | 962 ft | 133 kts | 116° |
| 2026-04-27 17:18 | 37.75516 | -25.73944 | 802 ft | 135 kts | 114° |
| 2026-04-27 17:18 | 37.75172 | -25.72846 | 626 ft | 135 kts | 115° |
| 2026-04-27 17:19 | 37.74828 | -25.71759 | 453 ft | 134 kts | 115° |
| 2026-04-27 17:19 | 37.74487 | -25.70684 | 272 ft | 124 kts | 114° |
| 2026-04-27 17:19 | 37.74241 | -25.69900 | 234 ft | 55 kts | 111° |
| 2026-04-27 17:19 | 37.74133 | -25.69563 | 225 ft | 41 kts | 111° |
| 2026-04-27 17:20 | 37.74024 | -25.69220 | 212 ft | 43 kts | 111° |
| 2026-04-27 17:20 | 37.73911 | -25.68860 | 201 ft | 46 kts | 112° |
| 2026-04-27 17:20 | 37.73818 | -25.68587 | 188 ft | 21 kts | 127° |
| 2026-04-27 17:20 | 37.73753 | -25.68477 | 187 ft | 15 kts | 40° |
| 2026-04-27 17:21 | 37.73825 | -25.68581 | 189 ft | 28 kts | 291° |
| 2026-04-27 17:21 | 37.73912 | -25.68858 | 201 ft | 37 kts | 291° |
| 2026-04-27 17:21 | 37.74008 | -25.69157 | 206 ft | 36 kts | 292° |
| 2026-04-27 17:21 | 37.74103 | -25.69461 | 222 ft | 40 kts | 290° |
| 2026-04-27 17:22 | 37.74207 | -25.69790 | 232 ft | 40 kts | 292° |
| 2026-04-27 17:22 | 37.74314 | -25.70115 | 242 ft | 33 kts | 293° |
| 2026-04-27 17:22 | 37.74451 | -25.70322 | 255 ft | 26 kts | 323° |
| 2026-04-27 17:22 | 37.74569 | -25.70437 | 267 ft | 20 kts | 322° |
| 2026-04-27 17:23 | 37.74632 | -25.70566 | 272 ft | 19 kts | 291° |
| 2026-04-27 17:23 | 37.74684 | -25.70738 | 272 ft | 23 kts | 292° |
| 2026-04-27 17:23 | 37.74747 | -25.70936 | 272 ft | 26 kts | 291° |
| 2026-04-27 17:23 | 37.74808 | -25.71127 | 272 ft | 8 kts | 292° |
| 2026-04-27 17:24 | 37.74837 | -25.71191 | 272 ft | 6 kts | 343° |
| 2026-04-27 17:24 | 37.74889 | -25.71172 | 271 ft | 6 kts | 22° |
| 2026-04-27 17:24 | 37.74892 | -25.71170 | 272 ft | 0 kts | 22° |